Time;durP1;ratioP1;P1;durP2;ratioP2;P2;SDS_P1;SDS_P2;PMS_P1;PMS_P2;Temp;Humidity;BMP_temperature;BMP_pressure;BME280_temperature;BME280_humidity;BME280_pressure;Samples;Min_cycle;Max_cycle;Signal;HPM_P1;HPM_P2
2023/06/23 00:01:29;;;;;;;4.03;2.00;;;;;;;24.73;51.02;101776.25;5030326;28;20068;-68
2023/06/23 00:03:54;;;;;;;4.75;2.30;;;;;;;24.75;50.98;101787.59;5030341;28;20073;-68
2023/06/23 00:06:20;;;;;;;4.65;2.28;;;;;;;24.75;51.08;101785.78;5030066;28;20037;-68
2023/06/23 00:08:47;;;;;;;4.93;2.25;;;;;;;24.74;51.04;101794.75;5030138;28;20029;-68
2023/06/23 00:11:12;;;;;;;4.57;2.30;;;;;;;24.74;50.98;101796.59;5030103;28;21159;-68
2023/06/23 00:13:38;;;;;;;5.47;2.22;;;;;;;24.72;50.97;101790.53;5033043;28;20040;-68
2023/06/23 00:16:05;;;;;;;4.30;2.15;;;;;;;24.71;51.03;101791.56;5034369;28;20082;-68
2023/06/23 00:18:35;;;;;;;4.13;2.10;;;;;;;24.71;50.88;101807.53;5034179;28;20054;-68
2023/06/23 00:21:02;;;;;;;4.80;2.42;;;;;;;24.72;50.97;101806.53;5034339;28;20045;-68
2023/06/23 00:23:29;;;;;;;4.60;2.20;;;;;;;24.70;51.08;101813.84;5034102;28;20037;-68
2023/06/23 00:25:54;;;;;;;5.43;2.35;;;;;;;24.70;51.08;101813.84;5033606;28;20566;-68
2023/06/23 00:28:19;;;;;;;4.05;2.30;;;;;;;24.70;50.99;101821.84;5034288;28;20052;-68
2023/06/23 00:30:45;;;;;;;4.18;2.30;;;;;;;24.69;50.78;101818.34;5033806;28;20094;-69
2023/06/23 00:33:11;;;;;;;3.97;2.13;;;;;;;24.68;50.77;101821.16;5033551;28;20041;-68
2023/06/23 00:35:36;;;;;;;4.07;2.17;;;;;;;24.69;50.66;101821.00;5033825;28;20067;-68
2023/06/23 00:38:03;;;;;;;4.45;2.30;;;;;;;24.67;50.55;101822.97;5033787;28;20083;-68
2023/06/23 00:40:29;;;;;;;4.28;2.40;;;;;;;24.66;50.76;101829.28;5033023;28;20060;-70
2023/06/23 00:42:54;;;;;;;4.30;2.50;;;;;;;24.67;50.62;101832.78;5033416;28;20512;-69
2023/06/23 00:45:21;;;;;;;4.45;2.22;;;;;;;24.66;50.56;101836.44;5034037;28;20485;-69
2023/06/23 00:47:46;;;;;;;4.40;2.28;;;;;;;24.65;50.38;101834.78;5033845;28;20036;-69
2023/06/23 00:50:15;;;;;;;4.63;2.45;;;;;;;24.62;50.78;101835.88;5033930;28;20087;-69
2023/06/23 00:52:49;;;;;;;4.30;2.10;;;;;;;24.65;50.75;101834.78;5033206;28;20067;-68
2023/06/23 00:55:16;;;;;;;5.05;2.38;;;;;;;24.64;50.46;101847.22;5033542;28;20128;-69
2023/06/23 00:57:41;;;;;;;4.53;2.20;;;;;;;24.65;50.49;101850.75;5033453;28;20064;-69
2023/06/23 01:00:13;;;;;;;3.60;2.03;;;;;;;24.61;50.70;101853.72;5033293;28;20403;-69
2023/06/23 01:02:39;;;;;;;4.80;2.15;;;;;;;24.63;50.46;101866.91;5033140;28;20041;-69
2023/06/23 01:05:04;;;;;;;3.53;2.03;;;;;;;24.61;50.43;101863.53;5033219;28;20030;-68
2023/06/23 01:07:46;;;;;;;4.45;2.50;;;;;;;24.61;50.58;101872.38;5033203;28;20041;-67
2023/06/23 01:10:33;;;;;;;4.63;2.53;;;;;;;24.62;50.51;101883.84;5033544;28;20358;-68
2023/06/23 01:13:09;;;;;;;3.67;2.13;;;;;;;24.59;50.24;101879.66;5032947;28;20147;-69
2023/06/23 01:15:39;;;;;;;4.15;2.05;;;;;;;24.62;50.53;101884.72;5032875;28;20041;-69
2023/06/23 01:18:24;;;;;;;4.53;2.28;;;;;;;24.58;50.42;101875.31;5033214;28;20068;-69
2023/06/23 01:20:50;;;;;;;7.18;2.63;;;;;;;24.61;50.28;101876.88;5033061;28;20025;-69
2023/06/23 01:23:53;;;;;;;4.25;2.55;;;;;;;24.59;50.30;101877.00;5032167;28;20041;-69
2023/06/23 01:26:35;;;;;;;4.68;2.30;;;;;;;24.58;50.43;101869.16;5039700;28;20532;-68
2023/06/23 01:29:09;;;;;;;5.18;2.40;;;;;;;24.56;50.11;101869.28;5032939;28;20033;-69
2023/06/23 01:31:48;;;;;;;5.60;2.58;;;;;;;24.57;50.08;101878.94;5032702;28;20486;-68
2023/06/23 01:34:23;;;;;;;5.18;2.83;;;;;;;24.57;50.18;101891.44;5032961;28;20045;-68
2023/06/23 01:37:01;;;;;;;6.40;2.88;;;;;;;24.54;50.38;101889.84;5032318;28;20040;-69
2023/06/23 01:39:30;;;;;;;4.88;2.70;;;;;;;24.56;49.91;101887.06;5032253;28;20389;-67
2023/06/23 01:42:10;;;;;;;4.50;2.42;;;;;;;24.51;50.03;101886.66;5032161;28;20045;-69
2023/06/23 01:44:38;;;;;;;4.45;2.50;;;;;;;24.56;50.17;101885.28;5032691;28;20116;-68
2023/06/23 01:47:10;;;;;;;5.22;2.70;;;;;;;24.53;50.07;101890.00;5032879;28;20052;-68
2023/06/23 01:49:37;;;;;;;4.63;2.55;;;;;;;24.54;50.12;101894.34;5031961;28;20547;-68
2023/06/23 01:52:06;;;;;;;5.25;2.45;;;;;;;24.53;50.13;101888.19;5032777;28;20025;-68
2023/06/23 01:54:37;;;;;;;4.47;2.40;;;;;;;24.53;50.04;101896.19;5032285;28;20099;-69
2023/06/23 01:57:04;;;;;;;4.88;2.63;;;;;;;24.52;50.00;101899.84;5032297;28;20037;-69
2023/06/23 01:59:31;;;;;;;4.45;2.33;;;;;;;24.51;50.16;101903.47;5032136;28;20068;-69
2023/06/23 02:01:58;;;;;;;4.70;2.60;;;;;;;24.51;50.09;101914.13;5032180;28;20025;-68
2023/06/23 02:04:25;;;;;;;4.88;2.72;;;;;;;24.52;50.05;101915.00;5032181;28;20040;-69
2023/06/23 02:06:51;;;;;;;5.15;2.90;;;;;;;24.51;49.96;101914.13;5032501;28;21195;-69
2023/06/23 02:09:24;;;;;;;4.97;3.00;;;;;;;24.49;49.85;101916.09;5032193;28;20033;-68
2023/06/23 02:11:51;;;;;;;5.22;2.92;;;;;;;24.50;49.64;101917.78;5031142;28;20041;-69
2023/06/23 02:14:19;;;;;;;4.72;2.83;;;;;;;24.50;50.03;101920.47;5030358;28;20428;-68
2023/06/23 02:16:45;;;;;;;5.40;3.08;;;;;;;24.48;49.96;101925.06;5032202;28;20035;-68
2023/06/23 02:19:11;;;;;;;5.68;2.75;;;;;;;24.49;50.02;101931.25;5031647;28;20087;-69
2023/06/23 02:21:37;;;;;;;6.35;2.88;;;;;;;24.50;49.74;101935.59;5032294;28;20135;-69
2023/06/23 02:24:06;;;;;;;4.95;3.00;;;;;;;24.48;49.85;101934.88;5032054;28;20108;-68
2023/06/23 02:26:34;;;;;;;4.63;2.80;;;;;;;24.48;49.71;101930.41;5032147;28;20037;-69
2023/06/23 02:29:01;;;;;;;5.05;2.42;;;;;;;24.48;49.96;101937.56;5031837;28;20040;-69
2023/06/23 02:31:26;;;;;;;5.03;2.80;;;;;;;24.49;49.50;101947.25;5031646;28;20041;-69
2023/06/23 02:33:52;;;;;;;4.40;2.92;;;;;;;24.48;49.72;101946.38;5031890;28;20520;-68
2023/06/23 02:36:20;;;;;;;5.25;3.42;;;;;;;24.47;49.51;101952.72;5031044;28;20090;-67
2023/06/23 02:38:48;;;;;;;5.10;3.13;;;;;;;24.48;49.63;101967.69;5031657;28;20069;-67
2023/06/23 02:41:16;;;;;;;5.55;3.13;;;;;;;24.46;49.71;101969.66;5031694;28;20037;-68
2023/06/23 02:43:51;;;;;;;5.32;3.28;;;;;;;24.44;49.92;101975.13;5031450;28;20033;-68
2023/06/23 02:46:22;;;;;;;5.35;2.80;;;;;;;24.45;49.58;101976.00;5032163;28;21043;-68
2023/06/23 02:48:50;;;;;;;5.03;2.80;;;;;;;24.45;49.51;101976.81;5031450;28;20029;-67
2023/06/23 02:51:19;;;;;;;5.00;2.70;;;;;;;24.45;49.51;101976.81;5031187;28;20032;-68
2023/06/23 02:54:07;;;;;;;5.03;2.97;;;;;;;24.45;49.60;101976.00;5031071;28;20091;-68
2023/06/23 02:56:37;;;;;;;5.35;3.13;;;;;;;24.41;49.48;101975.41;5031175;28;20829;-68
2023/06/23 02:59:05;;;;;;;6.15;3.30;;;;;;;24.43;49.50;101986.78;5031514;28;20033;-67
2023/06/23 03:01:33;;;;;;;5.65;3.20;;;;;;;24.43;49.21;101992.13;5030945;28;20029;-67
2023/06/23 03:03:59;;;;;;;4.65;2.75;;;;;;;24.43;49.33;101983.25;5031010;28;20036;-68
2023/06/23 03:06:24;;;;;;;5.03;3.20;;;;;;;24.43;49.46;101980.59;5031926;28;20030;-68
2023/06/23 03:08:50;;;;;;;4.78;3.03;;;;;;;24.41;49.28;101982.56;5030333;28;20176;-68
2023/06/23 03:11:17;;;;;;;4.93;2.67;;;;;;;24.41;49.47;101988.72;5031119;28;20548;-68
2023/06/23 03:13:43;;;;;;;6.18;3.15;;;;;;;24.42;49.58;101984.25;5031112;28;20037;-68
2023/06/23 03:16:13;;;;;;;4.57;3.05;;;;;;;24.40;49.31;101986.22;5030725;28;20540;-68
2023/06/23 03:18:46;;;;;;;4.43;2.75;;;;;;;24.40;49.36;101987.06;5030801;28;20114;-68
2023/06/23 03:21:13;;;;;;;5.53;3.58;;;;;;;24.42;49.08;101984.25;5030405;28;20040;-68
2023/06/23 03:23:39;;;;;;;5.00;3.20;;;;;;;24.38;49.65;101981.00;5030264;28;20033;-68
2023/06/23 03:26:08;;;;;;;5.97;3.10;;;;;;;24.42;49.04;102000.25;5030894;28;20060;-68
2023/06/23 03:28:36;;;;;;;4.32;3.00;;;;;;;24.39;49.44;101993.38;5030918;28;20037;-68
2023/06/23 03:31:07;;;;;;;6.35;3.03;;;;;;;24.37;49.18;101998.00;5030880;28;20084;-68
2023/06/23 03:33:40;;;;;;;6.50;3.15;;;;;;;24.36;49.44;101993.66;5030897;28;20393;-68
2023/06/23 03:36:13;;;;;;;6.43;3.57;;;;;;;24.37;49.41;101998.00;5030598;28;20056;-68
2023/06/23 03:38:49;;;;;;;5.30;3.50;;;;;;;24.38;49.50;101999.66;5031014;28;20041;-68
2023/06/23 03:41:15;;;;;;;4.40;2.90;;;;;;;24.38;49.21;101996.16;5031120;28;20048;-69
2023/06/23 03:44:05;;;;;;;4.60;3.00;;;;;;;24.39;49.20;102001.34;5030794;28;20037;-68
2023/06/23 03:46:40;;;;;;;4.82;3.30;;;;;;;24.38;49.30;101997.00;5032329;28;20033;-68
2023/06/23 03:49:09;;;;;;;5.97;3.45;;;;;;;24.38;49.36;101996.16;5034299;28;20032;-68
2023/06/23 03:51:36;;;;;;;5.68;3.25;;;;;;;24.36;49.10;101998.13;5034309;28;20116;-68
2023/06/23 03:54:03;;;;;;;6.00;3.28;;;;;;;24.36;49.19;101995.47;5034731;28;20025;-68
2023/06/23 03:56:34;;;;;;;5.72;3.47;;;;;;;24.32;49.18;101986.91;5034503;28;20101;-68
2023/06/23 03:59:02;;;;;;;5.20;3.08;;;;;;;24.34;48.95;102003.59;5034617;28;20033;-68
2023/06/23 04:01:29;;;;;;;5.15;3.03;;;;;;;24.35;49.27;102004.44;5033859;28;20025;-68
2023/06/23 04:03:57;;;;;;;5.75;3.30;;;;;;;24.34;49.10;102016.06;5034668;28;20466;-67
2023/06/23 04:06:25;;;;;;;5.22;3.20;;;;;;;24.33;49.20;102017.88;5034428;28;20033;-68
2023/06/23 04:08:54;;;;;;;5.00;3.35;;;;;;;24.33;49.13;102023.22;5034777;28;20044;-68
2023/06/23 04:11:22;;;;;;;5.38;3.33;;;;;;;24.33;48.84;102023.22;5034189;28;20033;-68
2023/06/23 04:13:49;;;;;;;5.20;2.95;;;;;;;24.33;49.04;102020.56;5033666;28;20044;-68
2023/06/23 04:16:17;;;;;;;4.85;3.20;;;;;;;24.32;48.88;102021.53;5033901;28;20061;-68
2023/06/23 04:18:45;;;;;;;5.38;3.33;;;;;;;24.33;49.08;102028.53;5033975;28;20111;-68
2023/06/23 04:21:13;;;;;;;4.68;2.90;;;;;;;24.32;48.75;102028.69;5034406;28;20030;-68
2023/06/23 04:23:40;;;;;;;6.00;3.55;;;;;;;24.32;48.83;102029.50;5033344;28;20039;-68
2023/06/23 04:26:09;;;;;;;4.93;3.20;;;;;;;24.32;49.22;102039.34;5033941;28;20063;-69
2023/06/23 04:28:35;;;;;;;4.88;3.08;;;;;;;24.32;49.31;102042.00;5032715;28;20076;-68
2023/06/23 04:31:06;;;;;;;6.35;3.20;;;;;;;24.32;48.76;102045.50;5034357;28;20513;-68
2023/06/23 04:33:31;;;;;;;5.35;2.97;;;;;;;24.31;49.18;102041.16;5033822;28;20532;-68
2023/06/23 04:36:03;;;;;;;4.75;3.10;;;;;;;24.28;48.74;102036.13;5032520;28;20132;-68
2023/06/23 04:38:34;;;;;;;4.70;3.10;;;;;;;24.27;49.03;102045.94;5033309;28;20025;-68
2023/06/23 04:41:07;;;;;;;6.22;3.30;;;;;;;24.31;49.23;102053.63;5033657;28;20489;-68
2023/06/23 04:43:38;;;;;;;4.50;2.90;;;;;;;24.30;49.02;102051.97;5033662;28;20037;-68
2023/06/23 04:46:11;;;;;;;5.78;3.30;;;;;;;24.30;49.19;102059.94;5033534;28;20039;-68
2023/06/23 04:48:41;;;;;;;4.67;2.83;;;;;;;24.31;48.83;102059.81;5033911;28;20269;-68
2023/06/23 04:51:09;;;;;;;4.60;2.90;;;;;;;24.30;49.29;102052.78;5033420;28;20287;-68
2023/06/23 04:53:47;;;;;;;5.05;3.03;;;;;;;24.27;49.10;102056.59;5033129;28;20119;-68
2023/06/23 04:56:18;;;;;;;4.85;2.90;;;;;;;24.28;49.19;102052.09;5033890;28;20477;-68
2023/06/23 04:58:53;;;;;;;6.15;3.50;;;;;;;24.29;49.35;102060.91;5031289;28;20126;-68
2023/06/23 05:01:20;;;;;;;4.93;3.10;;;;;;;24.31;49.10;102065.16;5033805;28;20037;-67
2023/06/23 05:03:48;;;;;;;6.05;3.67;;;;;;;24.29;48.98;102071.56;5032754;28;20048;-68
2023/06/23 05:06:17;;;;;;;5.93;3.30;;;;;;;24.27;49.31;102075.25;5032666;28;20083;-69
2023/06/23 05:08:45;;;;;;;5.15;3.45;;;;;;;24.26;49.27;102076.19;5033412;28;20170;-68
2023/06/23 05:11:12;;;;;;;4.80;3.20;;;;;;;24.30;49.44;102086.59;5033564;28;20534;-68
2023/06/23 05:13:39;;;;;;;6.03;3.40;;;;;;;24.29;49.48;102092.88;5032504;28;20072;-68
2023/06/23 05:16:10;;;;;;;5.10;3.42;;;;;;;24.29;49.27;102092.88;5031391;28;20052;-68
2023/06/23 05:18:36;;;;;;;5.45;3.58;;;;;;;24.24;49.16;102087.97;5032630;28;20580;-68
2023/06/23 05:21:04;;;;;;;6.60;3.72;;;;;;;24.26;49.48;102092.19;5033526;28;20029;-68
2023/06/23 05:23:35;;;;;;;6.40;3.78;;;;;;;24.26;49.50;102091.34;5032479;28;20044;-68
2023/06/23 05:26:02;;;;;;;6.43;3.90;;;;;;;24.27;49.34;102096.53;5033181;28;20064;-68
2023/06/23 05:28:31;;;;;;;5.53;3.75;;;;;;;24.24;49.60;102090.63;5032831;28;20053;-68
2023/06/23 05:30:59;;;;;;;6.68;3.88;;;;;;;24.29;49.27;102107.03;5032851;28;20037;-68
2023/06/23 05:33:25;;;;;;;5.40;4.05;;;;;;;24.30;49.53;102100.75;5032724;28;20095;-68
2023/06/23 05:35:54;;;;;;;6.95;4.18;;;;;;;24.27;49.76;102109.88;5033208;28;20120;-68
2023/06/23 05:38:22;;;;;;;6.68;4.00;;;;;;;24.26;49.48;102108.16;5032491;28;20041;-68
2023/06/23 05:40:47;;;;;;;7.03;4.05;;;;;;;24.28;49.46;102110.69;5032178;28;20033;-68
2023/06/23 05:43:13;;;;;;;6.50;4.13;;;;;;;24.29;49.58;102112.38;5032386;28;20079;-68
2023/06/23 05:45:38;;;;;;;6.90;4.50;;;;;;;24.30;49.61;102113.22;5032933;28;20104;-67
2023/06/23 05:48:27;;;;;;;6.28;4.00;;;;;;;24.27;49.85;102117.84;5032733;28;20037;-68
2023/06/23 05:50:55;;;;;;;6.40;3.90;;;;;;;24.30;49.86;102115.91;5031902;28;20397;-68
2023/06/23 05:53:21;;;;;;;6.45;4.07;;;;;;;24.30;49.66;102119.38;5032362;28;20041;-67
2023/06/23 05:56:29;;;;;;;5.95;3.90;;;;;;;24.31;50.20;102125.56;5031996;28;20385;-68
2023/06/23 05:58:57;;;;;;;5.30;3.45;;;;;;;24.31;49.68;102125.56;5030517;28;20055;-67
2023/06/23 06:01:23;;;;;;;5.15;3.22;;;;;;;24.32;50.03;102124.59;5031984;28;20389;-67
2023/06/23 06:04:17;;;;;;;5.38;3.40;;;;;;;24.28;50.13;102126.69;5031716;28;20033;-67
2023/06/23 06:06:45;;;;;;;5.70;3.55;;;;;;;24.31;50.25;102133.53;5030193;28;20072;-67
2023/06/23 06:09:14;;;;;;;5.20;3.20;;;;;;;24.32;50.38;102140.56;5031612;28;20033;-68
2023/06/23 06:11:42;;;;;;;5.45;3.63;;;;;;;24.31;50.08;102141.53;5031748;28;20032;-67
2023/06/23 06:14:09;;;;;;;7.10;3.40;;;;;;;24.30;50.34;102148.69;5032127;28;20465;-67
2023/06/23 06:16:36;;;;;;;7.05;3.65;;;;;;;24.30;50.51;102148.69;5032063;28;20044;-67
2023/06/23 06:19:03;;;;;;;5.32;3.60;;;;;;;24.31;50.44;102154.84;5031616;28;20057;-67
2023/06/23 06:21:32;;;;;;;6.13;3.70;;;;;;;24.27;50.49;102144.50;5031146;28;20036;-68
2023/06/23 06:23:59;;;;;;;5.35;3.42;;;;;;;24.28;50.49;102148.00;5032494;28;20550;-67
2023/06/23 06:26:25;;;;;;;6.18;3.90;;;;;;;24.29;50.53;102141.66;5031232;28;20030;-68
2023/06/23 06:28:54;;;;;;;9.25;7.40;;;;;;;24.25;51.72;102149.09;5031640;28;20033;-66
2023/06/23 06:31:20;;;;;;;16.15;13.73;;;;;;;24.16;53.88;102152.56;5032007;28;20033;-68
2023/06/23 06:33:48;;;;;;;16.50;13.27;;;;;;;24.06;54.51;102152.50;5031757;28;20033;-67
2023/06/23 06:36:16;;;;;;;17.05;13.82;;;;;;;23.95;54.63;102160.59;5031517;28;20033;-68
2023/06/23 06:38:42;;;;;;;18.63;14.63;;;;;;;23.86;55.27;102164.03;5031771;28;20091;-66
2023/06/23 06:41:08;;;;;;;17.42;14.68;;;;;;;23.74;54.72;102165.91;5031847;28;20082;-66
2023/06/23 06:43:34;;;;;;;19.27;14.90;;;;;;;23.62;55.38;102175.75;5031020;28;20048;-66
2023/06/23 06:46:01;;;;;;;18.42;15.25;;;;;;;23.49;56.59;102164.44;5031399;28;20420;-67
2023/06/23 06:48:27;;;;;;;19.27;14.70;;;;;;;23.41;56.53;102175.72;5031458;28;20032;-68
2023/06/23 06:50:55;;;;;;;21.55;15.00;;;;;;;23.29;56.20;102176.75;5031333;28;20702;-65
2023/06/23 06:53:20;;;;;;;18.25;14.23;;;;;;;23.24;57.76;102181.59;5031798;28;20025;-67
2023/06/23 06:55:47;;;;;;;17.30;14.55;;;;;;;23.16;57.57;102188.41;5031531;28;20381;-66
2023/06/23 06:58:12;;;;;;;20.20;14.93;;;;;;;23.11;57.06;102179.09;5031656;28;20036;-66
2023/06/23 07:00:38;;;;;;;17.67;13.90;;;;;;;23.06;57.13;102183.94;5030844;28;20040;-65
2023/06/23 07:03:04;;;;;;;18.48;14.10;;;;;;;23.04;57.43;102189.38;5031397;28;20037;-66
2023/06/23 07:05:29;;;;;;;16.90;14.13;;;;;;;22.98;57.58;102188.03;5031637;28;20036;-69
2023/06/23 07:07:54;;;;;;;18.23;14.60;;;;;;;22.95;57.54;102185.63;5023100;28;20959;-67
2023/06/23 07:10:20;;;;;;;17.67;14.05;;;;;;;22.91;58.32;102194.00;5031732;28;20083;-65
2023/06/23 07:12:45;;;;;;;18.70;14.45;;;;;;;22.88;59.15;102199.56;5030349;28;20029;-67
2023/06/23 07:15:11;;;;;;;19.48;14.65;;;;;;;22.85;59.98;102203.31;5031035;28;20037;-67
2023/06/23 07:17:37;;;;;;;20.65;16.25;;;;;;;22.83;59.45;102207.91;5030558;28;20050;-66
2023/06/23 07:20:03;;;;;;;21.05;15.88;;;;;;;22.81;59.06;102204.50;5030742;28;20037;-66
2023/06/23 07:22:28;;;;;;;18.52;14.90;;;;;;;22.80;60.02;102209.00;5029662;28;20043;-67
2023/06/23 07:24:55;;;;;;;20.33;15.18;;;;;;;22.78;59.71;102207.41;5031657;28;20029;-66
2023/06/23 07:27:21;;;;;;;19.25;14.90;;;;;;;22.76;59.92;102218.16;5030695;28;20071;-66
2023/06/23 07:29:46;;;;;;;19.00;14.25;;;;;;;22.73;59.50;102214.91;5030489;28;20549;-68
2023/06/23 07:32:14;;;;;;;18.13;15.13;;;;;;;22.73;60.06;102218.44;5030261;28;20029;-66
2023/06/23 07:34:40;;;;;;;20.35;15.45;;;;;;;22.73;60.20;102221.09;5030264;28;20022;-66
2023/06/23 07:37:05;;;;;;;20.20;15.15;;;;;;;22.71;60.69;102219.50;5030790;28;20032;-67
2023/06/23 07:39:30;;;;;;;18.85;13.88;;;;;;;22.68;61.38;102217.94;5029193;28;20029;-66
2023/06/23 07:41:56;;;;;;;18.25;13.90;;;;;;;22.66;61.01;102216.38;5029047;28;20039;-65
2023/06/23 07:44:21;;;;;;;20.17;14.60;;;;;;;22.65;61.25;102228.81;5029817;28;20128;-64
2023/06/23 07:46:47;;;;;;;16.55;13.65;;;;;;;22.63;61.54;102226.25;5030598;28;20555;-63
2023/06/23 07:49:13;;;;;;;15.68;13.25;;;;;;;22.64;60.81;102222.66;5030848;28;20032;-64
2023/06/23 07:51:38;;;;;;;14.88;11.32;;;;;;;22.65;59.45;102226.16;5032252;28;20040;-66
2023/06/23 07:54:04;;;;;;;15.18;11.35;;;;;;;22.68;59.41;102222.41;5032219;28;20072;-66
2023/06/23 07:56:30;;;;;;;12.73;9.63;;;;;;;22.82;58.91;102222.16;5032842;28;20034;-64
2023/06/23 07:58:55;;;;;;;13.18;8.35;;;;;;;22.95;58.86;102232.66;5034065;28;20037;-63
2023/06/23 08:01:21;;;;;;;12.02;8.00;;;;;;;23.07;58.72;102226.34;5032864;28;20033;-64
2023/06/23 08:03:46;;;;;;;9.60;7.00;;;;;;;23.18;58.43;102220.19;5031238;28;20024;-66
2023/06/23 08:06:13;;;;;;;9.55;6.63;;;;;;;23.28;57.87;102220.28;5033035;28;20372;-67
2023/06/23 08:08:40;;;;;;;8.77;5.93;;;;;;;23.36;57.80;102224.00;5033973;28;20032;-62
2023/06/23 08:11:06;;;;;;;9.10;5.70;;;;;;;23.46;57.63;102223.22;5033650;28;20547;-59
2023/06/23 08:13:32;;;;;;;9.45;5.13;;;;;;;23.54;57.72;102221.66;5032829;28;20040;-63
2023/06/23 08:15:58;;;;;;;7.57;4.85;;;;;;;23.64;56.98;102228.84;5034192;28;20036;-65
2023/06/23 08:18:24;;;;;;;7.65;4.53;;;;;;;23.70;57.03;102231.00;5033486;28;20092;-65
2023/06/23 08:20:49;;;;;;;7.78;4.47;;;;;;;23.76;56.75;102222.50;5030061;28;20041;-65
2023/06/23 08:23:15;;;;;;;9.23;7.00;;;;;;;23.71;56.45;102233.53;5029171;28;20045;-68
2023/06/23 08:25:41;;;;;;;11.00;7.90;;;;;;;23.66;57.05;102233.06;5031048;28;20033;-64
2023/06/23 08:28:06;;;;;;;10.63;7.50;;;;;;;23.66;56.78;102233.06;5033708;28;20450;-67
2023/06/23 08:30:33;;;;;;;10.98;8.25;;;;;;;23.62;56.61;102236.13;5034368;28;20040;-64
2023/06/23 08:33:02;;;;;;;11.40;7.80;;;;;;;23.60;57.62;102240.72;5034256;28;20025;-64
2023/06/23 08:35:27;;;;;;;10.18;7.05;;;;;;;23.57;55.65;102239.16;5034376;28;20041;-65
2023/06/23 08:37:53;;;;;;;10.00;7.33;;;;;;;23.55;55.77;102241.09;5033022;28;20025;-64
2023/06/23 08:40:19;;;;;;;10.52;7.32;;;;;;;23.53;55.24;102240.41;5034652;28;20356;-64
2023/06/23 08:42:44;;;;;;;9.75;7.30;;;;;;;23.55;55.50;102244.59;5032198;28;20029;-66
2023/06/23 08:45:12;;;;;;;10.35;6.93;;;;;;;23.55;56.33;102246.44;5033312;28;20032;-67
2023/06/23 08:47:45;;;;;;;9.65;6.45;;;;;;;23.55;57.45;102251.75;5033462;28;20064;-66
2023/06/23 08:50:11;;;;;;;10.52;6.90;;;;;;;23.58;55.45;102253.31;5031257;28;20036;-66
2023/06/23 08:52:37;;;;;;;9.23;6.38;;;;;;;23.59;54.62;102258.53;5023061;28;20036;-65
2023/06/23 08:55:03;;;;;;;11.23;6.80;;;;;;;23.59;54.92;102255.00;5033786;28;21003;-66
2023/06/23 08:57:29;;;;;;;9.45;6.70;;;;;;;23.57;55.38;102268.44;5036945;28;20059;-66
2023/06/23 08:59:56;;;;;;;7.55;5.72;;;;;;;23.66;55.64;102256.19;5035547;28;20073;-66
2023/06/23 09:02:22;;;;;;;7.80;4.72;;;;;;;23.75;55.44;102263.41;5035824;28;20037;-71
2023/06/23 09:04:49;;;;;;;6.63;4.15;;;;;;;23.80;55.64;102263.88;5039448;28;20064;-70
2023/06/23 09:07:15;;;;;;;6.15;4.00;;;;;;;23.85;55.18;102266.19;5039963;28;20428;-69
2023/06/23 09:09:45;;;;;;;7.32;3.90;;;;;;;23.89;55.15;102263.13;5038614;28;20045;-72
2023/06/23 09:12:20;;;;;;;6.68;3.83;;;;;;;23.96;54.97;102270.56;5037060;28;20033;-68
2023/06/23 09:14:48;;;;;;;5.93;3.88;;;;;;;24.03;54.48;102266.44;5035207;28;20068;-70
2023/06/23 09:17:14;;;;;;;6.85;3.40;;;;;;;24.08;54.92;102272.22;5036101;28;20094;-69
2023/06/23 09:19:42;;;;;;;5.25;3.60;;;;;;;24.14;54.91;102278.84;5035789;28;20064;-70
2023/06/23 09:22:12;;;;;;;6.22;3.30;;;;;;;24.17;54.83;102287.41;5034592;28;20037;-70
2023/06/23 09:24:45;;;;;;;6.35;3.35;;;;;;;24.20;54.23;102281.84;5035976;28;20129;-68
2023/06/23 09:27:11;;;;;;;5.97;3.22;;;;;;;24.27;54.13;102282.16;5035761;28;20028;-69
2023/06/23 09:29:40;;;;;;;6.13;3.60;;;;;;;24.28;54.30;102289.19;5035170;28;20068;-69
2023/06/23 09:32:09;;;;;;;6.53;3.40;;;;;;;24.30;54.28;102292.53;5036193;28;20040;-69
2023/06/23 09:34:37;;;;;;;5.45;3.00;;;;;;;24.33;54.22;102297.63;5036002;28;20052;-69
2023/06/23 09:37:16;;;;;;;9.07;3.40;;;;;;;24.32;54.43;102295.06;5033465;28;20066;-68
2023/06/23 09:39:48;;;;;;;5.70;3.15;;;;;;;24.35;54.25;102293.00;5031935;28;20033;-69
2023/06/23 09:42:13;;;;;;;5.75;3.47;;;;;;;24.37;53.98;102303.50;5030632;28;20064;-70
2023/06/23 09:44:41;;;;;;;6.22;3.22;;;;;;;24.40;53.95;102306.78;5032367;28;20113;-71
2023/06/23 09:47:07;;;;;;;12.32;3.28;;;;;;;24.39;54.07;102306.91;5031173;28;20128;-69
2023/06/23 09:49:43;;;;;;;7.35;3.40;;;;;;;24.40;54.12;102308.59;5030832;28;20060;-71
2023/06/23 09:52:11;;;;;;;5.65;3.28;;;;;;;24.42;54.25;102309.31;5031447;28;20132;-69
2023/06/23 09:54:41;;;;;;;6.18;3.00;;;;;;;24.47;54.14;102308.91;5032090;28;20144;-69
2023/06/23 09:57:14;;;;;;;5.95;3.63;;;;;;;24.44;54.00;102300.19;5032150;28;20033;-67
2023/06/23 09:59:41;;;;;;;6.53;3.45;;;;;;;24.50;53.93;102305.97;5029571;28;20048;-69
2023/06/23 10:02:09;;;;;;;4.72;3.05;;;;;;;24.49;54.19;102298.97;5030243;28;20041;-69
2023/06/23 10:04:35;;;;;;;7.07;3.33;;;;;;;24.48;53.88;102291.94;5031434;28;20037;-66
2023/06/23 10:07:21;;;;;;;7.25;3.40;;;;;;;24.50;53.85;102303.31;5029978;28;20045;-68
2023/06/23 10:10:04;;;;;;;5.13;3.10;;;;;;;24.47;53.99;102293.78;5031813;28;20041;-67
2023/06/23 10:12:29;;;;;;;5.20;2.90;;;;;;;24.50;53.86;102292.66;5032187;28;20040;-67
2023/06/23 10:14:57;;;;;;;4.45;3.13;;;;;;;24.49;53.83;102288.31;5032155;28;20215;-68
2023/06/23 10:17:23;;;;;;;6.47;3.22;;;;;;;24.48;53.90;102295.44;5029668;28;20037;-66
2023/06/23 10:19:55;;;;;;;5.20;3.00;;;;;;;24.47;54.06;102301.75;5031379;28;20698;-67
2023/06/23 10:22:21;;;;;;;5.85;3.33;;;;;;;24.48;53.98;102292.78;5031218;28;20033;-67
2023/06/23 10:24:51;;;;;;;5.78;3.20;;;;;;;24.46;54.34;102297.41;5031426;28;20041;-68
2023/06/23 10:27:26;;;;;;;5.38;3.17;;;;;;;24.46;54.24;102300.06;5030954;28;20702;-67
2023/06/23 10:29:56;;;;;;;5.25;2.97;;;;;;;24.49;54.05;102301.63;5029190;28;20132;-66
2023/06/23 10:32:33;;;;;;;6.47;3.20;;;;;;;24.47;54.13;102299.09;5030583;28;20043;-69
2023/06/23 10:35:04;;;;;;;5.35;2.88;;;;;;;24.48;54.42;102299.94;5031543;28;20029;-68
2023/06/23 10:37:30;;;;;;;6.03;3.13;;;;;;;24.50;54.18;102298.84;5030609;28;20048;-68
2023/06/23 10:40:05;;;;;;;5.68;3.30;;;;;;;24.52;54.50;102302.22;5029692;28;20094;-68
2023/06/23 10:42:34;;;;;;;5.13;3.00;;;;;;;24.54;54.49;102304.75;5028518;28;20045;-69
2023/06/23 10:45:01;;;;;;;7.22;3.25;;;;;;;24.55;54.41;102306.44;5030699;28;20219;-69
2023/06/23 10:47:27;;;;;;;7.95;3.22;;;;;;;24.57;54.67;102307.19;5031003;28;20380;-69
2023/06/23 10:49:53;;;;;;;4.57;3.05;;;;;;;24.58;54.67;102312.38;5031573;28;20106;-68
2023/06/23 10:52:18;;;;;;;5.72;3.03;;;;;;;24.55;54.52;102307.28;5030578;28;20486;-68
2023/06/23 10:54:44;;;;;;;4.88;3.17;;;;;;;24.59;54.69;102308.75;5030048;28;20025;-69
2023/06/23 10:57:11;;;;;;;4.95;3.08;;;;;;;24.62;54.67;102316.47;5030666;28;20037;-68
2023/06/23 10:59:42;;;;;;;7.30;3.35;;;;;;;24.58;54.58;102308.88;5031089;28;20703;-68
2023/06/23 11:02:08;;;;;;;6.43;3.28;;;;;;;24.58;53.57;102316.88;5030304;28;20025;-70
2023/06/23 11:04:41;;;;;;;4.90;3.10;;;;;;;24.59;53.35;102310.53;5031737;28;20120;-69
2023/06/23 11:07:07;;;;;;;8.13;3.20;;;;;;;24.61;53.64;102314.78;5029943;28;20047;-69
2023/06/23 11:09:54;;;;;;;7.60;3.38;;;;;;;24.56;53.66;102313.44;5030154;28;20036;-70
2023/06/23 11:12:30;;;;;;;5.82;3.20;;;;;;;24.55;53.48;102320.59;5029876;28;20048;-69
2023/06/23 11:15:12;;;;;;;6.00;2.97;;;;;;;24.56;53.67;102317.00;5030552;28;20064;-69
2023/06/23 11:17:48;;;;;;;6.15;3.13;;;;;;;24.57;53.27;102323.16;5030115;28;20053;-71
2023/06/23 11:20:29;;;;;;;5.80;3.13;;;;;;;24.56;53.78;102322.34;5036997;28;20045;-68
2023/06/23 11:23:05;;;;;;;6.07;3.20;;;;;;;24.58;53.30;102319.53;5029795;28;20098;-68
2023/06/23 11:25:39;;;;;;;6.43;3.38;;;;;;;24.61;53.04;102320.09;5030070;28;20037;-68
2023/06/23 11:28:23;;;;;;;;;;;;;;;24.73;52.91;102323.53;5028635;28;20060;-69
2023/06/23 11:30:53;;;;;;;5.32;3.38;;;;;;;24.68;53.42;102319.59;5036446;28;20347;-72